createdAt,value
2022-08-07T00:00:59.492Z,97812.41
2022-08-07T00:03:25.699Z,97815.91
2022-08-07T00:05:51.771Z,97810.09
2022-08-07T00:08:19.940Z,97812.81
2022-08-07T00:10:48.192Z,97818.75
2022-08-07T00:13:23.803Z,97815.31
2022-08-07T00:15:51.930Z,97808.91
2022-08-07T00:18:18.764Z,97811.41
2022-08-07T00:20:46.315Z,97816.19
2022-08-07T00:23:13.720Z,97816.22
2022-08-07T00:25:41.562Z,97813.50
2022-08-07T00:28:07.673Z,97818.41
2022-08-07T00:30:33.626Z,97810.06
2022-08-07T00:33:00.295Z,97819.81
2022-08-07T00:35:26.403Z,97821.97
2022-08-07T00:37:52.354Z,97826.25
2022-08-07T00:40:36.300Z,97834.06
2022-08-07T00:43:04.306Z,97833.00
2022-08-07T00:45:36.025Z,97833.75
2022-08-07T00:48:09.949Z,97837.91
2022-08-07T00:50:43.795Z,97835.22
2022-08-07T00:53:17.399Z,97833.13
2022-08-07T00:56:03.021Z,97834.56
2022-08-07T00:58:29.402Z,97838.59
2022-08-07T01:00:55.401Z,97835.78
2022-08-07T01:03:54.689Z,97840.31
2022-08-07T01:06:07.667Z,97835.75
2022-08-07T01:08:34.170Z,97834.72
2022-08-07T01:11:10.723Z,97838.22
2022-08-07T01:13:55.578Z,97836.03
2022-08-07T01:16:30.085Z,97827.41
2022-08-07T01:18:56.732Z,97824.19
2022-08-07T01:21:25.816Z,97827.47
2022-08-07T01:23:52.108Z,97821.53
2022-08-07T01:26:20.198Z,97828.53
2022-08-07T01:28:48.393Z,97821.53
2022-08-07T01:31:15.470Z,97819.91
2022-08-07T01:33:55.282Z,97820.75
2022-08-07T01:36:33.593Z,97817.50
2022-08-07T01:39:00.139Z,97829.56
2022-08-07T01:41:27.034Z,97827.94
2022-08-07T01:43:53.031Z,97819.28
2022-08-07T01:46:19.046Z,97820.84
2022-08-07T01:48:47.643Z,97817.63
2022-08-07T01:52:01.088Z,97816.50
2022-08-07T01:54:11.925Z,97817.00
2022-08-07T01:56:38.812Z,97817.25
2022-08-07T01:59:04.822Z,97822.56
2022-08-07T02:02:02.405Z,97821.66
2022-08-07T02:04:16.802Z,97824.66
2022-08-07T02:06:43.527Z,97818.75
2022-08-07T02:09:11.854Z,97820.88
2022-08-07T02:12:05.086Z,97819.47
2022-08-07T02:14:40.172Z,97815.78
2022-08-07T02:17:07.210Z,97820.16
2022-08-07T02:20:06.701Z,97815.59
2022-08-07T02:22:19.148Z,97816.16
2022-08-07T02:24:45.089Z,97810.78
2022-08-07T02:27:12.842Z,97810.00
2022-08-07T02:29:43.411Z,97813.03
2022-08-07T02:32:14.860Z,97813.31
2022-08-07T02:34:48.927Z,97813.53
2022-08-07T02:37:17.349Z,97812.41
2022-08-07T02:40:02.184Z,97805.75
2022-08-07T02:42:29.285Z,97812.94
2022-08-07T02:44:55.481Z,97811.09
2022-08-07T02:47:24.441Z,97805.81
2022-08-07T02:49:57.965Z,97796.16
2022-08-07T02:52:32.153Z,97802.84
2022-08-07T02:54:58.414Z,97795.25
2022-08-07T02:57:24.350Z,97795.81
2022-08-07T03:00:01.206Z,97793.63
2022-08-07T03:02:30.775Z,97797.19
2022-08-07T03:04:58.425Z,97778.97
2022-08-07T03:08:04.965Z,97777.34
2022-08-07T03:10:10.371Z,97782.19
2022-08-07T03:12:40.305Z,97778.47
2022-08-07T03:15:07.738Z,97785.19
2022-08-07T03:17:36.344Z,97787.25
2022-08-07T03:20:20.059Z,97785.72
2022-08-07T03:22:50.354Z,97790.38
2022-08-07T03:25:16.437Z,97784.34
2022-08-07T03:28:09.092Z,97790.50
2022-08-07T03:30:33.126Z,97781.59
2022-08-07T03:33:00.991Z,97781.22
2022-08-07T03:35:27.055Z,97785.81
2022-08-07T03:38:04.777Z,97790.72
2022-08-07T03:40:36.495Z,97795.13
2022-08-07T03:43:02.875Z,97793.13
2022-08-07T03:45:31.099Z,97793.41
2022-08-07T03:47:57.401Z,97793.59
2022-08-07T03:50:24.039Z,97799.06
2022-08-07T03:52:50.059Z,97790.91
2022-08-07T03:55:15.995Z,97792.84
2022-08-07T03:58:32.978Z,97790.06
2022-08-07T04:00:29.194Z,97792.78
2022-08-07T04:02:56.958Z,97794.09
2022-08-07T04:05:23.991Z,97800.81
2022-08-07T04:07:54.863Z,97801.34
2022-08-07T04:10:20.801Z,97796.06
2022-08-07T04:12:50.395Z,97800.19
2022-08-07T04:15:16.555Z,97799.41
2022-08-07T04:18:32.064Z,97799.22
2022-08-07T04:20:28.510Z,97800.25
2022-08-07T04:23:01.591Z,97798.66
2022-08-07T04:25:29.214Z,97795.69
2022-08-07T04:28:00.612Z,97794.28
2022-08-07T04:30:39.347Z,97795.72
2022-08-07T04:33:10.329Z,97798.53
2022-08-07T04:35:39.915Z,97801.44
2022-08-07T04:38:07.281Z,97795.94
2022-08-07T04:40:33.602Z,97804.09
2022-08-07T04:43:02.278Z,97806.50
2022-08-07T04:45:57.542Z,97812.47
2022-08-07T04:48:15.635Z,97807.88
2022-08-07T04:50:42.725Z,97813.25
2022-08-07T04:53:27.631Z,97805.00
2022-08-07T04:58:09.708Z,97808.66
2022-08-07T05:01:31.736Z,97813.41
2022-08-07T05:04:06.483Z,97818.25
2022-08-07T05:06:43.281Z,97818.69
2022-08-07T05:09:09.899Z,97812.78
2022-08-07T05:11:58.687Z,97809.56
2022-08-07T05:14:52.438Z,97811.13
2022-08-07T05:17:11.660Z,97807.03
2022-08-07T05:19:44.753Z,97815.59
2022-08-07T05:22:11.413Z,97812.09
2022-08-07T05:24:40.498Z,97813.09
2022-08-07T05:27:06.726Z,97825.44
2022-08-07T05:29:51.168Z,97823.84
2022-08-07T05:32:18.205Z,97833.84
2022-08-07T05:34:45.824Z,97833.88
2022-08-07T05:37:12.574Z,97828.81
2022-08-07T05:40:14.007Z,97833.38
2022-08-07T05:42:33.856Z,97835.81
2022-08-07T05:45:14.216Z,97839.06
2022-08-07T05:48:01.952Z,97836.34
2022-08-07T05:50:26.979Z,97840.91
2022-08-07T05:52:53.797Z,97844.41
2022-08-07T05:55:21.144Z,97840.72
2022-08-07T05:57:48.859Z,97839.63
2022-08-07T06:00:17.730Z,97852.94
2022-08-07T06:02:43.923Z,97850.50
2022-08-07T06:05:11.038Z,97848.13
2022-08-07T06:08:14.594Z,97849.22
2022-08-07T06:10:27.864Z,97850.91
2022-08-07T06:12:53.861Z,97838.34
2022-08-07T06:15:20.496Z,97848.59
2022-08-07T06:17:52.572Z,97849.69
2022-08-07T06:20:25.733Z,97855.84
2022-08-07T06:23:25.227Z,97850.97
2022-08-07T06:25:57.043Z,97861.00
2022-08-07T06:28:28.109Z,97861.59
2022-08-07T06:30:54.489Z,97866.97
2022-08-07T06:33:20.564Z,97869.41
2022-08-07T06:36:06.704Z,97865.34
2022-08-07T06:38:35.095Z,97867.25
2022-08-07T06:41:01.265Z,97872.72
2022-08-07T06:43:27.766Z,97867.03
2022-08-07T06:46:05.670Z,97872.94
2022-08-07T06:48:37.595Z,97867.56
2022-08-07T06:51:09.575Z,97865.94
2022-08-07T06:54:11.795Z,97864.88
2022-08-07T06:56:21.519Z,97867.75
2022-08-07T07:00:12.930Z,97861.78
2022-08-07T07:01:44.069Z,97854.31
2022-08-07T07:04:28.342Z,97852.34
2022-08-07T07:07:01.283Z,97859.06
2022-08-07T07:09:31.206Z,97854.56
2022-08-07T07:12:07.484Z,97853.78
2022-08-07T07:14:39.212Z,97845.66
2022-08-07T07:17:06.510Z,97842.81
2022-08-07T07:19:57.156Z,97839.03
2022-08-07T07:22:35.837Z,97835.38
2022-08-07T07:25:14.054Z,97833.47
2022-08-07T07:27:56.290Z,97841.72
2022-08-07T07:30:37.856Z,97841.13
2022-08-07T07:33:05.321Z,97832.75
2022-08-07T07:35:33.418Z,97834.91
2022-08-07T07:37:59.631Z,97830.50
2022-08-07T07:40:28.943Z,97835.88
2022-08-07T07:42:55.646Z,97836.06
2022-08-07T07:46:35.720Z,97829.03
2022-08-07T07:48:07.707Z,97828.34
2022-08-07T07:50:38.837Z,97825.66
2022-08-07T07:53:06.048Z,97824.09
2022-08-07T07:55:57.474Z,97825.91
2022-08-07T07:58:23.992Z,97822.44
2022-08-07T08:01:02.114Z,97826.47
2022-08-07T08:04:09.456Z,97827.31
2022-08-07T08:06:36.403Z,97830.63
2022-08-07T08:09:02.610Z,97823.78
2022-08-07T08:11:59.320Z,97819.78
2022-08-07T08:14:14.543Z,97821.31
2022-08-07T08:16:40.494Z,97821.44
2022-08-07T08:19:09.659Z,97820.81
2022-08-07T08:22:00.500Z,97829.97
2022-08-07T08:24:36.518Z,97830.56
2022-08-07T08:27:11.742Z,97821.75
2022-08-07T08:29:54.315Z,97828.06
2022-08-07T08:32:25.372Z,97830.41
2022-08-07T08:34:51.539Z,97821.94
2022-08-07T08:38:01.766Z,97825.88
2022-08-07T08:40:03.562Z,97814.41
2022-08-07T08:42:29.538Z,97825.72
2022-08-07T08:44:56.083Z,97819.72
2022-08-07T08:47:22.107Z,97814.94
2022-08-07T08:50:04.855Z,97822.03
2022-08-07T08:52:32.289Z,97818.88
2022-08-07T08:55:07.554Z,97818.81
2022-08-07T08:57:34.294Z,97821.00
2022-08-07T09:00:00.318Z,97810.13
2022-08-07T09:02:34.832Z,97817.03
2022-08-07T09:05:03.464Z,97814.72
2022-08-07T09:07:34.031Z,97813.28
2022-08-07T09:10:12.046Z,97812.63
2022-08-07T09:12:38.179Z,97813.72
2022-08-07T09:16:20.205Z,97811.59
2022-08-07T09:17:59.716Z,97811.94
2022-08-07T09:20:35.360Z,97807.31
2022-08-07T09:24:31.901Z,97800.69
2022-08-07T09:25:53.506Z,97803.91
2022-08-07T09:30:06.431Z,97796.16
2022-08-07T09:31:06.642Z,97801.00
2022-08-07T09:33:52.835Z,97788.13
2022-08-07T09:36:20.480Z,97791.75
2022-08-07T09:38:49.915Z,97786.81
2022-08-07T09:41:19.643Z,97783.63
2022-08-07T09:44:05.806Z,97782.63
2022-08-07T09:47:49.520Z,97798.16
2022-08-07T09:50:01.257Z,97794.63
2022-08-07T09:52:15.459Z,97789.63
2022-08-07T09:54:50.791Z,97789.84
2022-08-07T09:57:16.727Z,97773.97
2022-08-07T09:59:46.323Z,97780.97
2022-08-07T10:02:29.646Z,97779.44
2022-08-07T10:04:57.656Z,97759.75
2022-08-07T10:07:31.815Z,97766.09
2022-08-07T10:10:06.013Z,97759.13
2022-08-07T10:12:39.656Z,97750.03
2022-08-07T10:15:06.343Z,97752.53
2022-08-07T10:18:01.277Z,97748.97
2022-08-07T10:20:20.670Z,97744.50
2022-08-07T10:22:50.855Z,97746.84
2022-08-07T10:25:20.781Z,97738.97
2022-08-07T10:27:51.453Z,97742.75
2022-08-07T10:30:17.606Z,97735.97
2022-08-07T10:32:53.091Z,97732.97
2022-08-07T10:35:20.432Z,97736.84
2022-08-07T10:37:48.696Z,97734.78
2022-08-07T10:40:32.646Z,97729.84
2022-08-07T10:42:58.637Z,97725.03
2022-08-07T10:45:44.731Z,97728.38
2022-08-07T10:48:11.073Z,97729.66
2022-08-07T10:50:40.397Z,97723.19
2022-08-07T10:53:08.895Z,97725.03
2022-08-07T10:55:37.929Z,97714.22
2022-08-07T10:58:04.993Z,97722.38
2022-08-07T11:00:39.171Z,97721.69
2022-08-07T11:03:11.352Z,97708.47
2022-08-07T11:05:50.410Z,97716.72
2022-08-07T11:08:17.250Z,97716.88
2022-08-07T11:10:43.224Z,97711.50
2022-08-07T11:13:42.305Z,97711.78
2022-08-07T11:15:59.621Z,97713.72
2022-08-07T11:18:25.575Z,97712.66
2022-08-07T11:20:53.518Z,97704.44
2022-08-07T11:23:20.784Z,97696.28
2022-08-07T11:25:56.895Z,97704.78
2022-08-07T11:28:32.525Z,97693.09
2022-08-07T11:30:58.464Z,97690.94
2022-08-07T11:33:53.456Z,97688.59
2022-08-07T11:36:10.630Z,97687.75
2022-08-07T11:38:36.562Z,97681.13
2022-08-07T11:41:05.963Z,97685.78
2022-08-07T11:43:54.289Z,97684.09
2022-08-07T11:46:19.765Z,97680.72
2022-08-07T11:49:17.503Z,97670.66
2022-08-07T11:51:44.871Z,97684.56
2022-08-07T11:54:12.736Z,97675.50
2022-08-07T11:56:38.694Z,97667.94
2022-08-07T12:00:07.577Z,97672.56
2022-08-07T12:02:00.605Z,97673.56
2022-08-07T12:04:26.992Z,97665.72
2022-08-07T12:07:01.013Z,97670.38
2022-08-07T12:09:34.874Z,97664.41
2022-08-07T12:12:09.133Z,97662.63
2022-08-07T12:14:37.252Z,97660.38
2022-08-07T12:17:04.414Z,97656.78
2022-08-07T12:19:35.511Z,97656.50
2022-08-07T12:22:37.637Z,97656.56
2022-08-07T12:25:07.861Z,97655.59
2022-08-07T12:28:08.445Z,97660.63
2022-08-07T12:30:19.980Z,97657.41
2022-08-07T12:32:49.546Z,97655.19
2022-08-07T12:35:16.846Z,97655.19
2022-08-07T12:38:10.056Z,97652.31
2022-08-07T12:40:48.524Z,97649.09
2022-08-07T12:44:01.332Z,97647.66
2022-08-07T12:46:01.897Z,97640.66
2022-08-07T12:48:52.032Z,97648.91
2022-08-07T12:51:17.586Z,97642.34
2022-08-07T12:54:23.897Z,97646.63
2022-08-07T12:56:29.894Z,97641.84
2022-08-07T12:58:57.274Z,97635.91
2022-08-07T13:01:32.018Z,97644.09
2022-08-07T13:04:01.918Z,97639.16
2022-08-07T13:06:29.326Z,97633.38
2022-08-07T13:08:55.269Z,97639.75
2022-08-07T13:11:21.261Z,97639.00
2022-08-07T13:13:50.077Z,97640.88
2022-08-07T13:16:16.362Z,97642.53
2022-08-07T13:18:44.636Z,97639.03
2022-08-07T13:21:23.563Z,97639.66
2022-08-07T13:24:04.512Z,97637.31
2022-08-07T13:26:30.761Z,97636.44
2022-08-07T13:28:58.471Z,97630.84
2022-08-07T13:31:24.506Z,97632.19
2022-08-07T13:34:32.787Z,97635.03
2022-08-07T13:36:44.304Z,97634.41
2022-08-07T13:39:12.684Z,97631.06
2022-08-07T13:41:41.585Z,97625.31
2022-08-07T13:44:10.737Z,97631.28
2022-08-07T13:46:48.861Z,97623.56
2022-08-07T13:50:35.670Z,97622.59
2022-08-07T13:52:23.034Z,97624.84
2022-08-07T13:54:49.048Z,97625.59
2022-08-07T13:57:23.849Z,97616.97
2022-08-07T13:59:50.310Z,97620.81
2022-08-07T14:02:21.024Z,97617.16
2022-08-07T14:04:59.275Z,97617.72
2022-08-07T14:07:25.283Z,97620.28
2022-08-07T14:10:02.693Z,97610.63
2022-08-07T14:12:41.956Z,97617.00
2022-08-07T14:15:15.040Z,97616.09
2022-08-07T14:18:15.836Z,97612.13
2022-08-07T14:20:40.177Z,97608.63
2022-08-07T14:23:10.471Z,97606.94
2022-08-07T14:25:39.660Z,97605.44
2022-08-07T14:28:14.060Z,97602.97
2022-08-07T14:30:40.688Z,97606.56
2022-08-07T14:33:06.781Z,97609.72
2022-08-07T14:35:44.867Z,97601.59
2022-08-07T14:38:30.765Z,97601.81
2022-08-07T14:40:57.544Z,97604.22
2022-08-07T14:43:57.180Z,97610.13
2022-08-07T14:46:10.019Z,97603.06
2022-08-07T14:48:35.964Z,97604.91
2022-08-07T14:51:02.383Z,97601.22
2022-08-07T14:54:05.513Z,97593.25
2022-08-07T14:56:29.667Z,97589.44
2022-08-07T14:58:56.497Z,97585.97
2022-08-07T15:01:23.328Z,97582.78
2022-08-07T15:06:35.314Z,97594.91
2022-08-07T15:09:03.043Z,97588.84
2022-08-07T15:11:53.968Z,97586.47
2022-08-07T15:17:13.314Z,97584.88
2022-08-07T15:22:31.356Z,97586.16
2022-08-07T15:25:19.456Z,97568.06
2022-08-07T15:28:30.755Z,97576.72
2022-08-07T15:30:31.653Z,97571.91
2022-08-07T15:36:01.246Z,97582.63
2022-08-07T15:38:51.013Z,97583.59
2022-08-07T15:41:23.677Z,97587.38
2022-08-07T15:44:02.086Z,97579.72
2022-08-07T15:49:15.385Z,97578.44
2022-08-07T15:54:23.908Z,97584.97
2022-08-07T15:56:52.341Z,97582.25
2022-08-07T15:59:18.286Z,97586.66
2022-08-07T16:02:01.797Z,97575.97
2022-08-07T16:04:28.724Z,97574.72
2022-08-07T16:07:00.407Z,97574.00
2022-08-07T16:09:40.949Z,97576.72
2022-08-07T16:12:12.284Z,97576.44
2022-08-07T16:14:38.380Z,97572.81
2022-08-07T16:17:15.243Z,97575.06
2022-08-07T16:19:58.760Z,97582.88
2022-08-07T16:22:31.813Z,97581.47
2022-08-07T16:25:02.196Z,97582.16
2022-08-07T16:27:39.904Z,97574.78
2022-08-07T16:30:29.681Z,97580.47
2022-08-07T16:32:54.493Z,97581.06
2022-08-07T16:35:56.827Z,97588.97
2022-08-07T16:38:11.262Z,97584.06
2022-08-07T16:40:37.565Z,97576.97
2022-08-07T16:43:23.452Z,97581.16
2022-08-07T16:47:04.659Z,97575.38
2022-08-07T16:50:20.353Z,97584.81
2022-08-07T16:52:01.537Z,97584.94
2022-08-07T16:54:32.686Z,97586.78
2022-08-07T16:56:59.292Z,97592.09
2022-08-07T16:59:25.606Z,97588.72
2022-08-07T17:02:11.582Z,97589.69
2022-08-07T17:04:51.086Z,97592.91
2022-08-07T17:07:28.414Z,97604.38
2022-08-07T17:10:32.991Z,97613.06
2022-08-07T17:12:55.419Z,97616.09
2022-08-07T17:15:44.360Z,97608.72
2022-08-07T17:18:14.396Z,97615.41
2022-08-07T17:20:40.779Z,97615.09
2022-08-07T17:23:08.721Z,97606.22
2022-08-07T17:25:51.327Z,97610.22
2022-08-07T17:28:19.590Z,97618.50
2022-08-07T17:30:58.596Z,97620.03
2022-08-07T17:34:09.217Z,97610.81
2022-08-07T17:36:13.420Z,97617.47
2022-08-07T17:38:46.154Z,97621.63
2022-08-07T17:42:02.022Z,97622.69
2022-08-07T17:44:09.321Z,97620.78
2022-08-07T17:46:37.910Z,97622.44
2022-08-07T17:49:08.887Z,97634.94
2022-08-07T17:51:59.892Z,97632.13
2022-08-07T17:54:39.789Z,97635.41
2022-08-07T17:57:18.670Z,97638.59
2022-08-07T17:59:45.391Z,97632.81
2022-08-07T18:02:16.403Z,97633.56
2022-08-07T18:04:42.361Z,97635.63
2022-08-07T18:07:20.747Z,97643.94
2022-08-07T18:10:05.970Z,97638.41
2022-08-07T18:12:34.089Z,97647.63
2022-08-07T18:15:00.245Z,97647.47
2022-08-07T18:18:46.177Z,97649.75
2022-08-07T18:21:08.595Z,97656.38
2022-08-07T18:22:58.393Z,97656.66
2022-08-07T18:25:40.155Z,97654.47
2022-08-07T18:28:07.367Z,97657.81
2022-08-07T18:30:36.801Z,97656.75
2022-08-07T18:33:10.927Z,97655.19
2022-08-07T18:35:51.832Z,97657.88
2022-08-07T18:38:58.330Z,97662.50
2022-08-07T18:41:09.977Z,97655.44
2022-08-07T18:43:48.939Z,97659.44
2022-08-07T18:46:25.669Z,97670.47
2022-08-07T18:50:30.174Z,97665.81
2022-08-07T18:52:51.787Z,97670.56
2022-08-07T18:54:27.873Z,97668.28
2022-08-07T18:57:29.205Z,97660.50
2022-08-07T18:59:47.704Z,97678.72
2022-08-07T19:02:34.307Z,97684.34
2022-08-07T19:05:14.862Z,97673.75
2022-08-07T19:07:51.857Z,97680.63
2022-08-07T19:10:23.577Z,97684.16
2022-08-07T19:12:58.208Z,97690.50
2022-08-07T19:16:04.666Z,97690.47
2022-08-07T19:18:35.006Z,97692.44
2022-08-07T19:21:09.613Z,97689.94
2022-08-07T19:23:58.328Z,97692.34
2022-08-07T19:26:29.291Z,97697.88
2022-08-07T19:30:54.294Z,97704.63
2022-08-07T19:32:10.346Z,97713.56
2022-08-07T19:34:34.385Z,97719.00
2022-08-07T19:37:09.585Z,97710.63
2022-08-07T19:39:56.731Z,97716.34
2022-08-07T19:42:27.038Z,97721.03
2022-08-07T19:44:56.636Z,97722.44
2022-08-07T19:47:27.237Z,97721.31
2022-08-07T19:49:58.216Z,97719.75
2022-08-07T19:52:28.749Z,97727.38
2022-08-07T19:54:56.448Z,97735.75
2022-08-07T19:58:00.654Z,97731.44
2022-08-07T20:00:10.394Z,97728.47
2022-08-07T20:02:39.170Z,97736.28
2022-08-07T20:05:07.826Z,97732.28
2022-08-07T20:07:46.203Z,97736.06
2022-08-07T20:10:38.024Z,97733.44
2022-08-07T20:12:58.914Z,97738.88
2022-08-07T20:15:24.866Z,97731.84
2022-08-07T20:18:03.591Z,97737.22
2022-08-07T20:20:30.449Z,97749.38
2022-08-07T20:22:56.414Z,97749.69
2022-08-07T20:25:22.428Z,97751.53
2022-08-07T20:27:57.849Z,97752.59
2022-08-07T20:30:24.906Z,97750.72
2022-08-07T20:32:51.426Z,97751.81
2022-08-07T20:35:21.935Z,97756.13
2022-08-07T20:37:58.318Z,97752.09
2022-08-07T20:40:31.409Z,97750.81
2022-08-07T20:43:00.127Z,97752.19
2022-08-07T20:45:32.933Z,97754.06
2022-08-07T20:48:12.868Z,97756.75
2022-08-07T20:50:55.179Z,97762.94
2022-08-07T20:53:25.878Z,97761.56
2022-08-07T20:56:07.091Z,97755.47
2022-08-07T20:58:33.739Z,97755.75
2022-08-07T21:00:59.682Z,97759.03
2022-08-07T21:03:26.183Z,97767.38
2022-08-07T21:05:56.788Z,97766.06
2022-08-07T21:08:32.427Z,97768.78
2022-08-07T21:11:04.386Z,97771.75
2022-08-07T21:13:57.858Z,97766.03
2022-08-07T21:16:16.595Z,97763.09
2022-08-07T21:18:45.996Z,97773.06
2022-08-07T21:21:12.342Z,97770.88
2022-08-07T21:23:49.419Z,97770.56
2022-08-07T21:26:16.672Z,97770.56
2022-08-07T21:28:48.654Z,97768.16
2022-08-07T21:31:16.756Z,97760.88
2022-08-07T21:33:57.572Z,97756.91
2022-08-07T21:36:30.849Z,97755.50
2022-08-07T21:38:58.490Z,97753.41
2022-08-07T21:41:24.618Z,97751.50
2022-08-07T21:43:55.875Z,97755.06
2022-08-07T21:46:24.995Z,97763.44
2022-08-07T21:48:57.665Z,97759.69
2022-08-07T21:51:25.419Z,97751.31
2022-08-07T21:53:52.696Z,97756.13
2022-08-07T21:56:36.716Z,97752.13
2022-08-07T21:59:05.536Z,97761.25
2022-08-07T22:02:07.418Z,97759.84
2022-08-07T22:04:20.323Z,97758.50
2022-08-07T22:06:46.470Z,97761.19
2022-08-07T22:09:15.896Z,97763.88
2022-08-07T22:12:04.971Z,97754.22
2022-08-07T22:14:36.329Z,97759.34
2022-08-07T22:17:02.634Z,97753.72
2022-08-07T22:19:30.481Z,97753.16
2022-08-07T22:22:04.927Z,97748.28
2022-08-07T22:24:42.515Z,97744.78
2022-08-07T22:27:08.461Z,97742.09
2022-08-07T22:29:47.334Z,97742.88
2022-08-07T22:32:20.278Z,97752.06
2022-08-07T22:34:49.620Z,97747.72
2022-08-07T22:37:19.268Z,97739.41
2022-08-07T22:39:51.951Z,97741.56
2022-08-07T22:42:20.171Z,97740.78
2022-08-07T22:44:59.064Z,97741.31
2022-08-07T22:47:25.679Z,97739.94
2022-08-07T22:49:54.968Z,97731.09
2022-08-07T22:52:37.120Z,97740.19
2022-08-07T22:55:14.896Z,97732.13
2022-08-07T22:57:43.739Z,97733.47
2022-08-07T23:00:09.882Z,97736.41
2022-08-07T23:02:37.435Z,97730.22
2022-08-07T23:06:09.991Z,97725.63
2022-08-07T23:07:49.675Z,97734.25
2022-08-07T23:10:38.203Z,97729.19
2022-08-07T23:13:01.873Z,97717.06
2022-08-07T23:16:06.006Z,97720.63
2022-08-07T23:18:13.803Z,97711.19
2022-08-07T23:20:51.500Z,97720.88
2022-08-07T23:24:06.670Z,97707.41
2022-08-07T23:26:05.705Z,97712.53
2022-08-07T23:28:31.741Z,97712.53
2022-08-07T23:31:06.892Z,97712.03
2022-08-07T23:34:35.551Z,97706.94
2022-08-07T23:36:29.705Z,97705.28
2022-08-07T23:38:55.965Z,97702.91
2022-08-07T23:41:22.193Z,97697.78
2022-08-07T23:43:51.265Z,97690.25
2022-08-07T23:46:20.056Z,97697.22
2022-08-07T23:48:49.669Z,97692.94
2022-08-07T23:52:59.666Z,97694.00
2022-08-07T23:54:01.577Z,97693.47
2022-08-07T23:56:27.531Z,97697.50
2022-08-07T23:58:57.199Z,97701.53
